createdAt,value
2018-12-12T00:00:00.752Z,7.40
2018-12-12T00:01:00.936Z,7.50
2018-12-12T00:02:01.116Z,7.30
2018-12-12T00:03:01.302Z,6.70
2018-12-12T00:04:01.480Z,7.60
2018-12-12T00:05:01.662Z,6.70
2018-12-12T00:06:01.844Z,6.60
2018-12-12T00:07:02.024Z,6.00
2018-12-12T00:08:02.202Z,6.30
2018-12-12T00:09:02.384Z,6.60
2018-12-12T00:10:02.564Z,6.20
2018-12-12T00:11:02.744Z,6.10
2018-12-12T00:12:02.924Z,6.00
2018-12-12T00:13:03.106Z,6.10
2018-12-12T00:14:03.289Z,6.10
2018-12-12T00:15:03.470Z,6.30
2018-12-12T00:16:03.653Z,6.50
2018-12-12T00:17:03.827Z,5.70
2018-12-12T00:18:04.009Z,6.30
2018-12-12T00:19:04.191Z,6.40
2018-12-12T00:20:04.371Z,6.40
2018-12-12T00:21:04.556Z,6.20
2018-12-12T00:22:04.740Z,6.40
2018-12-12T00:23:04.923Z,6.60
2018-12-12T00:24:05.102Z,6.90
2018-12-12T00:25:05.287Z,7.10
2018-12-12T00:26:05.462Z,7.20
2018-12-12T00:27:05.644Z,7.40
2018-12-12T00:28:05.826Z,7.50
2018-12-12T00:29:06.006Z,8.60
2018-12-12T00:30:06.189Z,7.30
2018-12-12T00:31:06.373Z,8.60
2018-12-12T00:32:06.555Z,8.90
2018-12-12T00:33:06.735Z,10.90
2018-12-12T00:34:06.916Z,10.10
2018-12-12T00:35:07.093Z,8.70
2018-12-12T00:36:07.280Z,8.20
2018-12-12T00:37:07.455Z,8.10
2018-12-12T00:38:07.635Z,7.20
2018-12-12T00:39:07.818Z,8.80
2018-12-12T00:40:07.996Z,8.30
2018-12-12T00:41:08.182Z,7.70
2018-12-12T00:42:08.360Z,7.50
2018-12-12T00:43:08.540Z,6.90
2018-12-12T00:44:08.730Z,7.80
2018-12-12T00:45:08.908Z,8.20
2018-12-12T00:46:09.095Z,7.90
2018-12-12T00:47:09.277Z,7.70
2018-12-12T00:48:09.456Z,7.50
2018-12-12T00:49:09.638Z,7.30
2018-12-12T00:50:09.817Z,8.00
2018-12-12T00:51:10.001Z,9.30
2018-12-12T00:52:10.184Z,8.00
2018-12-12T00:53:10.360Z,8.30
2018-12-12T00:54:10.549Z,7.50
2018-12-12T00:55:10.732Z,7.20
2018-12-12T00:56:10.909Z,7.90
2018-12-12T00:57:11.083Z,7.70
2018-12-12T00:58:11.276Z,8.40
2018-12-12T00:59:11.458Z,7.60
2018-12-12T01:00:11.658Z,7.40
2018-12-12T01:01:11.847Z,7.30
2018-12-12T01:02:12.023Z,7.30
2018-12-12T01:03:12.199Z,8.00
2018-12-12T01:04:12.391Z,7.60
2018-12-12T01:05:12.573Z,7.90
2018-12-12T01:06:12.752Z,8.30
2018-12-12T01:07:12.945Z,7.90
2018-12-12T01:08:13.128Z,7.30
2018-12-12T01:09:13.308Z,8.10
2018-12-12T01:10:13.565Z,8.60
2018-12-12T01:11:13.669Z,7.70
2018-12-12T01:12:13.860Z,8.70
2018-12-12T01:13:14.041Z,7.70
2018-12-12T01:14:14.218Z,8.60
2018-12-12T01:15:14.405Z,8.10
2018-12-12T01:16:14.581Z,8.70
2018-12-12T01:17:14.769Z,8.40
2018-12-12T01:18:14.954Z,7.70
2018-12-12T01:19:15.130Z,8.40
2018-12-12T01:20:15.316Z,7.70
2018-12-12T01:21:15.491Z,7.80
2018-12-12T01:22:15.673Z,8.10
2018-12-12T01:23:15.855Z,8.30
2018-12-12T01:24:16.030Z,7.70
2018-12-12T01:25:16.217Z,8.30
2018-12-12T01:26:16.393Z,8.00
2018-12-12T01:27:16.584Z,8.60
2018-12-12T01:28:16.762Z,7.80
2018-12-12T01:29:16.965Z,8.10
2018-12-12T01:30:17.128Z,7.70
2018-12-12T01:31:17.297Z,8.60
2018-12-12T01:32:17.476Z,8.40
2018-12-12T01:33:17.663Z,8.80
2018-12-12T01:34:17.837Z,8.30
2018-12-12T01:35:18.015Z,8.70
2018-12-12T01:36:18.195Z,7.90
2018-12-12T01:37:18.374Z,8.90
2018-12-12T01:38:18.554Z,8.30
2018-12-12T01:39:18.751Z,8.40
2018-12-12T01:40:18.928Z,9.10
2018-12-12T01:41:19.106Z,8.30
2018-12-12T01:42:19.291Z,7.70
2018-12-12T01:43:19.470Z,8.00
2018-12-12T01:44:19.649Z,7.70
2018-12-12T01:45:19.841Z,8.60
2018-12-12T01:46:20.016Z,8.00
2018-12-12T01:47:20.196Z,9.40
2018-12-12T01:48:20.381Z,9.10
2018-12-12T01:49:20.557Z,8.00
2018-12-12T01:50:20.739Z,9.10
2018-12-12T01:51:20.916Z,8.40
2018-12-12T01:52:21.113Z,7.50
2018-12-12T01:53:21.285Z,8.50
2018-12-12T01:54:21.477Z,8.70
2018-12-12T01:55:21.661Z,7.80
2018-12-12T01:56:21.842Z,7.70
2018-12-12T01:57:22.024Z,8.10
2018-12-12T01:58:22.204Z,8.40
2018-12-12T01:59:22.392Z,7.60
2018-12-12T02:00:22.566Z,8.60
2018-12-12T02:01:22.749Z,7.90
2018-12-12T02:02:22.928Z,8.60
2018-12-12T02:03:23.112Z,8.50
2018-12-12T02:04:23.305Z,7.20
2018-12-12T02:05:23.493Z,8.40
2018-12-12T02:06:23.679Z,8.00
2018-12-12T02:07:23.858Z,8.30
2018-12-12T02:08:24.038Z,8.20
2018-12-12T02:09:24.219Z,8.60
2018-12-12T02:10:24.400Z,8.10
2018-12-12T02:11:24.577Z,8.00
2018-12-12T02:12:24.822Z,7.50
2018-12-12T02:13:24.939Z,7.70
2018-12-12T02:14:25.122Z,8.20
2018-12-12T02:15:25.305Z,7.80
2018-12-12T02:16:25.483Z,8.80
2018-12-12T02:17:25.669Z,7.90
2018-12-12T02:18:25.852Z,7.60
2018-12-12T02:19:26.033Z,7.80
2018-12-12T02:20:26.212Z,8.00
2018-12-12T02:21:26.394Z,7.90
2018-12-12T02:22:26.573Z,7.70
2018-12-12T02:23:26.758Z,8.10
2018-12-12T02:24:26.934Z,8.00
2018-12-12T02:25:27.115Z,7.30
2018-12-12T02:26:27.297Z,7.60
2018-12-12T02:27:27.478Z,7.70
2018-12-12T02:28:27.660Z,7.60
2018-12-12T02:29:27.842Z,8.10
2018-12-12T02:30:28.020Z,8.20
2018-12-12T02:31:28.210Z,8.00
2018-12-12T02:32:28.383Z,8.40
2018-12-12T02:33:28.560Z,7.40
2018-12-12T02:34:28.743Z,8.20
2018-12-12T02:35:28.922Z,7.80
2018-12-12T02:36:29.118Z,8.00
2018-12-12T02:37:29.295Z,7.80
2018-12-12T02:38:29.475Z,8.00
2018-12-12T02:39:29.659Z,7.50
2018-12-12T02:40:29.842Z,7.40
2018-12-12T02:41:30.016Z,8.90
2018-12-12T02:42:30.202Z,8.20
2018-12-12T02:43:30.382Z,7.90
2018-12-12T02:44:30.561Z,7.80
2018-12-12T02:45:30.738Z,8.10
2018-12-12T02:46:30.920Z,7.40
2018-12-12T02:47:31.105Z,7.40
2018-12-12T02:48:31.288Z,8.30
2018-12-12T02:49:32.407Z,7.90
2018-12-12T02:50:31.648Z,7.80
2018-12-12T02:51:31.827Z,7.60
2018-12-12T02:52:32.014Z,8.20
2018-12-12T02:53:32.196Z,8.20
2018-12-12T02:54:32.375Z,8.70
2018-12-12T02:55:32.553Z,8.30
2018-12-12T02:56:32.736Z,7.80
2018-12-12T02:57:32.914Z,7.40
2018-12-12T02:58:33.093Z,8.10
2018-12-12T02:59:33.283Z,7.90
2018-12-12T03:00:33.472Z,7.80
2018-12-12T03:01:33.652Z,8.20
2018-12-12T03:02:33.830Z,7.70
2018-12-12T03:03:34.014Z,8.00
2018-12-12T03:04:34.195Z,7.50
2018-12-12T03:05:34.373Z,7.70
2018-12-12T03:06:34.560Z,8.40
2018-12-12T03:07:34.750Z,7.90
2018-12-12T03:08:34.924Z,7.80
2018-12-12T03:09:35.117Z,8.40
2018-12-12T03:10:35.299Z,7.90
2018-12-12T03:11:35.478Z,8.00
2018-12-12T03:12:35.666Z,7.40
2018-12-12T03:13:35.854Z,8.20
2018-12-12T03:14:36.034Z,8.30
2018-12-12T03:15:36.209Z,8.10
2018-12-12T03:16:36.390Z,7.60
2018-12-12T03:17:36.577Z,8.50
2018-12-12T03:18:36.756Z,8.30
2018-12-12T03:19:36.938Z,8.00
2018-12-12T03:20:37.118Z,8.00
2018-12-12T03:21:37.303Z,7.50
2018-12-12T03:22:37.482Z,7.60
2018-12-12T03:23:37.663Z,7.40
2018-12-12T03:24:37.864Z,8.10
2018-12-12T03:25:38.050Z,8.20
2018-12-12T03:26:38.231Z,8.20
2018-12-12T03:27:38.412Z,8.10
2018-12-12T03:28:38.592Z,8.60
2018-12-12T03:29:38.772Z,8.80
2018-12-12T03:30:38.951Z,8.90
2018-12-12T03:31:39.135Z,8.60
2018-12-12T03:32:39.311Z,8.40
2018-12-12T03:33:39.485Z,8.70
2018-12-12T03:34:39.673Z,9.00
2018-12-12T03:35:39.850Z,8.20
2018-12-12T03:36:40.499Z,8.50
2018-12-12T03:37:40.178Z,8.60
2018-12-12T03:38:40.355Z,8.40
2018-12-12T03:39:40.533Z,8.00
2018-12-12T03:40:40.715Z,8.50
2018-12-12T03:41:40.900Z,7.90
2018-12-12T03:42:41.077Z,8.40
2018-12-12T03:43:41.263Z,8.30
2018-12-12T03:44:41.448Z,7.90
2018-12-12T03:45:41.629Z,8.10
2018-12-12T03:46:41.808Z,8.00
2018-12-12T03:47:41.995Z,7.80
2018-12-12T03:48:42.181Z,8.20
2018-12-12T03:49:42.355Z,8.90
2018-12-12T03:50:42.539Z,8.10
2018-12-12T03:51:42.717Z,8.00
2018-12-12T03:52:42.900Z,8.00
2018-12-12T03:53:43.084Z,7.90
2018-12-12T03:54:43.259Z,7.90
2018-12-12T03:55:43.443Z,7.30
2018-12-12T03:56:43.623Z,7.70
2018-12-12T03:57:43.809Z,8.20
2018-12-12T03:58:43.990Z,7.50
2018-12-12T03:59:44.171Z,7.90
2018-12-12T04:00:44.354Z,8.10
2018-12-12T04:01:44.526Z,8.00
2018-12-12T04:02:44.707Z,8.10
2018-12-12T04:03:44.890Z,7.70
2018-12-12T04:04:45.075Z,7.50
2018-12-12T04:05:45.259Z,8.00
2018-12-12T04:06:45.434Z,7.80
2018-12-12T04:07:45.610Z,7.50
2018-12-12T04:08:45.792Z,7.40
2018-12-12T04:09:45.976Z,8.00
2018-12-12T04:10:46.172Z,7.80
2018-12-12T04:11:46.352Z,7.60
2018-12-12T04:12:46.534Z,6.90
2018-12-12T04:13:46.726Z,7.70
2018-12-12T04:14:46.905Z,7.40
2018-12-12T04:15:47.088Z,7.80
2018-12-12T04:16:47.269Z,7.40
2018-12-12T04:17:47.448Z,7.70
2018-12-12T04:18:47.628Z,7.50
2018-12-12T04:19:47.810Z,7.20
2018-12-12T04:20:47.994Z,7.60
2018-12-12T04:21:48.183Z,7.70
2018-12-12T04:22:48.358Z,7.40
2018-12-12T04:23:48.544Z,7.70
2018-12-12T04:24:48.718Z,7.60
2018-12-12T04:25:48.904Z,12.20
2018-12-12T04:26:49.082Z,13.80
2018-12-12T04:27:49.265Z,14.50
2018-12-12T04:28:49.448Z,14.50
2018-12-12T04:29:49.627Z,13.40
2018-12-12T04:30:49.806Z,12.30
2018-12-12T04:31:49.985Z,11.20
2018-12-12T04:32:50.173Z,10.60
2018-12-12T04:33:50.354Z,9.60
2018-12-12T04:34:50.535Z,8.80
2018-12-12T04:35:50.717Z,8.30
2018-12-12T04:36:50.898Z,7.60
2018-12-12T04:37:51.077Z,7.80
2018-12-12T04:38:51.254Z,7.70
2018-12-12T04:39:51.447Z,7.30
2018-12-12T04:40:51.623Z,7.30
2018-12-12T04:41:51.810Z,7.60
2018-12-12T04:42:51.983Z,6.70
2018-12-12T04:43:52.170Z,7.40
2018-12-12T04:44:52.344Z,6.80
2018-12-12T04:45:52.530Z,7.20
2018-12-12T04:46:52.709Z,7.30
2018-12-12T04:47:52.894Z,6.70
2018-12-12T04:48:53.070Z,7.30
2018-12-12T04:49:53.274Z,7.00
2018-12-12T04:50:53.450Z,7.60
2018-12-12T04:51:53.634Z,6.90
2018-12-12T04:52:53.815Z,7.40
2018-12-12T04:53:53.996Z,7.00
2018-12-12T04:54:54.182Z,7.00
2018-12-12T04:55:54.367Z,7.20
2018-12-12T04:56:54.553Z,6.90
2018-12-12T04:57:54.727Z,6.90
2018-12-12T04:58:54.921Z,6.90
2018-12-12T04:59:55.103Z,6.90
2018-12-12T05:00:55.281Z,7.00
2018-12-12T05:01:55.462Z,6.80
2018-12-12T05:02:55.648Z,6.60
2018-12-12T05:03:55.831Z,6.40
2018-12-12T05:04:56.007Z,6.70
2018-12-12T05:05:56.228Z,7.00
2018-12-12T05:06:56.369Z,6.80
2018-12-12T05:07:56.541Z,6.30
2018-12-12T05:08:56.726Z,7.10
2018-12-12T05:09:56.907Z,7.00
2018-12-12T05:10:57.090Z,6.90
2018-12-12T05:11:57.267Z,6.60
2018-12-12T05:12:57.447Z,6.60
2018-12-12T05:13:57.631Z,6.80
2018-12-12T05:14:57.806Z,6.80
2018-12-12T05:15:57.989Z,6.10
2018-12-12T05:16:58.169Z,6.70
2018-12-12T05:17:58.348Z,6.50
2018-12-12T05:18:58.531Z,6.70
2018-12-12T05:19:58.715Z,6.70
2018-12-12T05:20:58.895Z,5.90
2018-12-12T05:21:59.135Z,6.00
2018-12-12T05:22:59.252Z,6.40
2018-12-12T05:23:59.432Z,6.60
2018-12-12T05:24:59.624Z,6.40
2018-12-12T05:25:59.812Z,6.20
2018-12-12T05:26:59.998Z,6.80
2018-12-12T05:28:00.181Z,6.20
2018-12-12T05:29:00.363Z,6.30
2018-12-12T05:30:00.539Z,6.90
2018-12-12T05:31:00.721Z,6.60
2018-12-12T05:32:00.907Z,7.00
2018-12-12T05:33:01.085Z,6.40
2018-12-12T05:34:01.271Z,7.50
2018-12-12T05:35:01.445Z,7.50
2018-12-12T05:36:01.629Z,7.00
2018-12-12T05:37:01.805Z,7.00
2018-12-12T05:38:01.991Z,7.20
2018-12-12T05:39:02.169Z,7.50
2018-12-12T05:40:02.350Z,6.80
2018-12-12T05:41:02.528Z,6.80
2018-12-12T05:42:02.709Z,7.80
2018-12-12T05:43:02.888Z,7.20
2018-12-12T05:44:03.080Z,6.70
2018-12-12T05:45:03.266Z,7.00
2018-12-12T05:46:03.442Z,7.30
2018-12-12T05:47:03.620Z,7.00
2018-12-12T05:48:03.801Z,6.90
2018-12-12T05:49:03.980Z,6.90
2018-12-12T05:50:04.164Z,6.90
2018-12-12T05:51:04.344Z,6.60
2018-12-12T05:52:04.524Z,7.10
2018-12-12T05:53:04.705Z,6.10
2018-12-12T05:54:04.885Z,6.30
2018-12-12T05:55:05.063Z,6.60
2018-12-12T05:56:05.251Z,7.40
2018-12-12T05:57:05.443Z,6.60
2018-12-12T05:58:05.627Z,6.80
2018-12-12T05:59:05.816Z,6.60
2018-12-12T06:00:05.998Z,6.90
2018-12-12T06:01:06.170Z,7.30
2018-12-12T06:02:06.356Z,7.30
2018-12-12T06:03:06.534Z,7.20
2018-12-12T06:04:06.747Z,7.10
2018-12-12T06:05:06.928Z,7.50
2018-12-12T06:06:07.107Z,6.50
2018-12-12T06:07:07.289Z,7.10
2018-12-12T06:08:07.469Z,7.40
2018-12-12T06:09:07.642Z,7.20
2018-12-12T06:10:07.821Z,7.40
2018-12-12T06:11:08.001Z,7.20
2018-12-12T06:12:08.184Z,7.00
2018-12-12T06:13:08.364Z,7.70
2018-12-12T06:14:08.546Z,7.10
2018-12-12T06:15:08.736Z,7.20
2018-12-12T06:16:08.915Z,7.20
2018-12-12T06:17:09.094Z,7.30
2018-12-12T06:18:09.278Z,7.30
2018-12-12T06:19:09.479Z,6.70
2018-12-12T06:20:09.640Z,6.90
2018-12-12T06:21:09.836Z,7.10
2018-12-12T06:22:10.022Z,7.10
2018-12-12T06:23:10.204Z,7.10
2018-12-12T06:24:10.386Z,7.20
2018-12-12T06:25:10.566Z,7.40
2018-12-12T06:26:10.747Z,7.70
2018-12-12T06:27:10.917Z,6.40
2018-12-12T06:28:11.126Z,7.40
2018-12-12T06:29:11.286Z,6.90
2018-12-12T06:30:11.472Z,6.80
2018-12-12T06:31:11.656Z,7.20
2018-12-12T06:32:11.843Z,7.80
2018-12-12T06:33:12.036Z,7.50
2018-12-12T06:34:12.222Z,7.10
2018-12-12T06:35:12.414Z,6.90
2018-12-12T06:36:12.595Z,7.20
2018-12-12T06:37:12.767Z,7.00
2018-12-12T06:38:12.952Z,7.10
2018-12-12T06:39:13.134Z,6.70
2018-12-12T06:40:13.312Z,7.20
2018-12-12T06:41:13.493Z,7.20
2018-12-12T06:42:13.674Z,6.90
2018-12-12T06:43:13.861Z,7.20
2018-12-12T06:44:14.042Z,7.10
2018-12-12T06:45:14.220Z,7.50
2018-12-12T06:46:14.403Z,7.70
2018-12-12T06:47:14.582Z,7.10
2018-12-12T06:48:14.761Z,7.40
2018-12-12T06:49:14.943Z,6.70
2018-12-12T06:50:15.139Z,7.30
2018-12-12T06:51:15.310Z,7.40
2018-12-12T06:52:15.493Z,7.20
2018-12-12T06:53:15.674Z,7.00
2018-12-12T06:54:15.856Z,7.90
2018-12-12T06:55:16.045Z,7.00
2018-12-12T06:56:16.229Z,8.30
2018-12-12T06:57:16.409Z,7.70
2018-12-12T06:58:16.591Z,8.00
2018-12-12T06:59:16.780Z,7.20
2018-12-12T07:00:16.976Z,6.80
2018-12-12T07:01:17.140Z,7.70
2018-12-12T07:02:17.322Z,7.20
2018-12-12T07:03:17.503Z,7.00
2018-12-12T07:04:17.685Z,6.60
2018-12-12T07:05:17.871Z,7.40
2018-12-12T07:06:18.065Z,7.50
2018-12-12T07:07:18.238Z,7.50
2018-12-12T07:08:18.426Z,7.50
2018-12-12T07:09:18.611Z,7.30
2018-12-12T07:10:18.789Z,7.00
2018-12-12T07:11:18.973Z,7.30
2018-12-12T07:12:19.161Z,7.50
2018-12-12T07:13:19.340Z,7.00
2018-12-12T07:14:19.523Z,7.00
2018-12-12T07:15:19.704Z,7.30
2018-12-12T07:16:19.886Z,7.30
2018-12-12T07:17:20.063Z,6.90
2018-12-12T07:18:20.251Z,7.10
2018-12-12T07:19:20.424Z,7.00
2018-12-12T07:20:20.603Z,7.90
2018-12-12T07:21:20.783Z,7.50
2018-12-12T07:22:20.965Z,7.50
2018-12-12T07:23:21.150Z,7.80
2018-12-12T07:24:21.330Z,7.70
2018-12-12T07:25:21.511Z,7.90
2018-12-12T07:26:21.690Z,7.90
2018-12-12T07:27:21.875Z,8.00
2018-12-12T07:28:22.057Z,8.00
2018-12-12T07:29:22.238Z,8.00
2018-12-12T07:30:22.417Z,8.20
2018-12-12T07:31:22.598Z,8.10
2018-12-12T07:32:26.054Z,7.80
2018-12-12T07:33:22.960Z,8.00
2018-12-12T07:34:23.140Z,7.80
2018-12-12T07:35:23.323Z,7.30
2018-12-12T07:36:23.504Z,7.50
2018-12-12T07:37:23.686Z,7.10
2018-12-12T07:38:23.883Z,6.60
2018-12-12T07:39:24.057Z,6.90
2018-12-12T07:40:24.238Z,6.30
2018-12-12T07:41:24.421Z,6.40
2018-12-12T07:42:24.600Z,7.10
2018-12-12T07:43:24.781Z,6.40
2018-12-12T07:44:24.966Z,7.00
2018-12-12T07:45:25.147Z,7.10
2018-12-12T07:46:25.328Z,7.10
2018-12-12T07:47:25.499Z,6.50
2018-12-12T07:48:25.699Z,6.70
2018-12-12T07:49:25.883Z,6.60
2018-12-12T07:50:26.071Z,7.10
2018-12-12T07:51:26.250Z,7.20
2018-12-12T07:52:26.432Z,6.80
2018-12-12T07:53:26.613Z,6.80
2018-12-12T07:54:26.797Z,7.40
2018-12-12T07:55:26.976Z,6.40
2018-12-12T07:56:27.164Z,6.60
2018-12-12T07:57:27.340Z,6.90
2018-12-12T07:58:27.518Z,6.90
2018-12-12T07:59:27.705Z,7.00
2018-12-12T08:00:27.880Z,6.80
2018-12-12T08:01:28.066Z,6.90
2018-12-12T08:02:28.252Z,7.40
2018-12-12T08:03:28.429Z,6.70
2018-12-12T08:04:28.615Z,7.00
2018-12-12T08:05:28.811Z,6.60
2018-12-12T08:06:28.995Z,7.10
2018-12-12T08:07:29.175Z,7.50
2018-12-12T08:08:29.355Z,7.00
2018-12-12T08:09:29.539Z,6.80
2018-12-12T08:10:29.718Z,7.40
2018-12-12T08:11:29.903Z,7.10
2018-12-12T08:12:30.078Z,7.30
2018-12-12T08:13:30.259Z,7.00
2018-12-12T08:14:30.441Z,7.00
2018-12-12T08:15:30.630Z,7.00
2018-12-12T08:16:30.815Z,7.50
2018-12-12T08:17:31.004Z,6.90
2018-12-12T08:18:31.190Z,7.30
2018-12-12T08:19:31.374Z,7.20
2018-12-12T08:20:31.554Z,7.50
2018-12-12T08:21:31.737Z,7.50
2018-12-12T08:22:31.918Z,7.50
2018-12-12T08:23:32.099Z,7.30
2018-12-12T08:24:32.280Z,7.40
2018-12-12T08:25:32.458Z,7.80
2018-12-12T08:26:32.640Z,7.40
2018-12-12T08:27:32.821Z,7.90
2018-12-12T08:28:33.002Z,7.30
2018-12-12T08:29:33.180Z,7.70
2018-12-12T08:30:33.367Z,7.60
2018-12-12T08:31:33.543Z,7.60
2018-12-12T08:32:33.723Z,8.10
2018-12-12T08:33:33.904Z,7.60
2018-12-12T08:34:34.087Z,7.30
2018-12-12T08:35:34.270Z,7.20
2018-12-12T08:36:34.473Z,7.70
2018-12-12T08:37:34.668Z,8.40
2018-12-12T08:38:34.843Z,8.50
2018-12-12T08:39:35.025Z,8.60
2018-12-12T08:40:35.207Z,8.10
2018-12-12T08:41:35.383Z,7.50
2018-12-12T08:42:35.582Z,7.30
2018-12-12T08:43:35.747Z,7.80
2018-12-12T08:44:35.929Z,7.50
2018-12-12T08:45:36.115Z,8.30
2018-12-12T08:46:36.294Z,7.70
2018-12-12T08:47:36.473Z,7.30
2018-12-12T08:48:36.672Z,6.80
2018-12-12T08:49:36.854Z,8.00
2018-12-12T08:50:37.041Z,8.10
2018-12-12T08:51:37.217Z,7.40
2018-12-12T08:52:37.403Z,7.80
2018-12-12T08:53:37.581Z,7.90
2018-12-12T08:54:37.767Z,7.60
2018-12-12T08:55:37.944Z,8.60
2018-12-12T08:56:38.127Z,8.00
2018-12-12T08:57:38.311Z,7.50
2018-12-12T08:58:38.498Z,7.90
2018-12-12T08:59:38.673Z,7.40
2018-12-12T09:00:38.859Z,7.80
2018-12-12T09:01:39.034Z,7.60
2018-12-12T09:02:39.216Z,7.80
2018-12-12T09:03:39.401Z,7.80
2018-12-12T09:04:39.584Z,8.30
2018-12-12T09:05:39.765Z,8.20
2018-12-12T09:06:39.950Z,8.50
2018-12-12T09:07:40.130Z,8.10
2018-12-12T09:08:40.320Z,8.40
2018-12-12T09:09:40.504Z,8.90
2018-12-12T09:10:40.686Z,8.30
2018-12-12T09:11:40.863Z,8.00
2018-12-12T09:12:41.049Z,8.40
2018-12-12T09:13:41.235Z,8.40
2018-12-12T09:14:41.413Z,9.40
2018-12-12T09:15:41.609Z,9.10
2018-12-12T09:16:41.796Z,8.90
2018-12-12T09:17:41.990Z,9.10
2018-12-12T09:18:42.183Z,8.90
2018-12-12T09:19:42.367Z,8.60
2018-12-12T09:20:42.554Z,7.90
2018-12-12T09:21:42.738Z,8.70
2018-12-12T09:22:42.918Z,8.70
2018-12-12T09:23:43.102Z,8.80
2018-12-12T09:24:43.284Z,8.70
2018-12-12T09:25:43.464Z,8.60
2018-12-12T09:26:43.644Z,9.00
2018-12-12T09:27:43.834Z,9.10
2018-12-12T09:28:44.017Z,8.40
2018-12-12T09:29:44.193Z,8.80
2018-12-12T09:30:44.424Z,8.40
2018-12-12T09:31:44.618Z,8.20
2018-12-12T09:32:44.806Z,7.60
2018-12-12T09:33:44.985Z,8.70
2018-12-12T09:34:45.170Z,7.70
2018-12-12T09:35:45.364Z,8.00
2018-12-12T09:36:45.544Z,7.90
2018-12-12T09:37:45.778Z,8.00
2018-12-12T09:38:45.914Z,8.30
2018-12-12T09:39:46.109Z,8.20
2018-12-12T09:40:46.283Z,7.70
2018-12-12T09:41:46.473Z,7.90
2018-12-12T09:42:46.652Z,8.10
2018-12-12T09:43:46.834Z,7.90
2018-12-12T09:44:47.018Z,7.40
2018-12-12T09:45:47.198Z,7.80
2018-12-12T09:46:47.380Z,7.70
2018-12-12T09:47:47.566Z,7.50
2018-12-12T09:48:48.612Z,7.10
2018-12-12T09:49:47.933Z,7.30
2018-12-12T09:50:48.113Z,7.40
2018-12-12T09:51:48.296Z,7.00
2018-12-12T09:52:48.482Z,7.10
2018-12-12T09:53:48.664Z,6.90
2018-12-12T09:54:48.842Z,7.00
2018-12-12T09:55:49.024Z,7.00
2018-12-12T09:56:49.207Z,6.50
2018-12-12T09:57:49.387Z,6.70
2018-12-12T09:58:49.572Z,7.30
2018-12-12T09:59:49.752Z,7.00
2018-12-12T10:00:49.944Z,6.60
2018-12-12T10:01:50.126Z,6.20
2018-12-12T10:02:50.307Z,6.50
2018-12-12T10:03:50.494Z,6.50
2018-12-12T10:04:50.678Z,6.30
2018-12-12T10:05:50.853Z,5.90
2018-12-12T10:06:51.033Z,6.10
2018-12-12T10:07:51.213Z,6.30
2018-12-12T10:08:51.408Z,6.10
2018-12-12T10:09:51.590Z,6.10
2018-12-12T10:10:51.779Z,6.20
2018-12-12T10:11:51.966Z,6.00
2018-12-12T10:12:52.146Z,6.20
2018-12-12T10:13:52.323Z,6.20
2018-12-12T10:14:52.509Z,6.90
2018-12-12T10:15:52.695Z,6.60
2018-12-12T10:16:52.871Z,6.80
2018-12-12T10:17:53.062Z,6.50
2018-12-12T10:18:53.243Z,6.40
2018-12-12T10:19:53.423Z,6.20
2018-12-12T10:20:53.609Z,6.70
2018-12-12T10:21:53.799Z,6.20
2018-12-12T10:22:53.978Z,6.00
2018-12-12T10:23:54.165Z,6.10
2018-12-12T10:24:54.350Z,5.90
2018-12-12T10:25:54.534Z,6.00
2018-12-12T10:26:54.720Z,6.10
2018-12-12T10:27:54.908Z,6.40
2018-12-12T10:28:55.197Z,5.40
2018-12-12T10:29:55.297Z,5.90
2018-12-12T10:30:55.480Z,5.80
2018-12-12T10:31:55.661Z,5.30
2018-12-12T10:32:55.846Z,5.20
2018-12-12T10:33:56.033Z,5.60
2018-12-12T10:34:56.224Z,5.20
2018-12-12T10:35:56.407Z,5.30
2018-12-12T10:36:56.595Z,5.30
2018-12-12T10:37:56.776Z,5.30
2018-12-12T10:38:56.963Z,5.50
2018-12-12T10:39:57.154Z,5.40
2018-12-12T10:40:57.338Z,5.30
2018-12-12T10:41:57.526Z,5.10
2018-12-12T10:42:57.712Z,4.80
2018-12-12T10:43:57.899Z,4.60
2018-12-12T10:44:58.083Z,4.80
2018-12-12T10:45:58.281Z,4.90
2018-12-12T10:46:58.453Z,4.70
2018-12-12T10:47:58.639Z,5.30
2018-12-12T10:48:58.838Z,5.20
2018-12-12T10:49:59.085Z,5.10
2018-12-12T10:50:59.210Z,5.30
2018-12-12T10:51:59.390Z,4.80
2018-12-12T10:52:59.572Z,5.00
2018-12-12T10:53:59.758Z,5.30
2018-12-12T10:54:59.941Z,5.20
2018-12-12T10:56:00.124Z,5.50
2018-12-12T10:57:00.308Z,5.20
2018-12-12T10:58:00.491Z,5.10
2018-12-12T10:59:00.675Z,5.00
2018-12-12T11:00:00.864Z,5.30
2018-12-12T11:01:01.050Z,5.30
2018-12-12T11:02:01.237Z,4.90
2018-12-12T11:03:01.434Z,5.40
2018-12-12T11:04:01.622Z,5.80
2018-12-12T11:05:01.803Z,5.60
2018-12-12T11:06:01.992Z,5.70
2018-12-12T11:07:02.191Z,6.00
2018-12-12T11:08:02.367Z,5.60
2018-12-12T11:09:02.550Z,5.60
2018-12-12T11:10:02.738Z,6.30
2018-12-12T11:11:02.925Z,5.60
2018-12-12T11:12:03.117Z,5.60
2018-12-12T11:13:03.303Z,5.80
2018-12-12T11:14:03.485Z,5.60
2018-12-12T11:15:03.664Z,5.70
2018-12-12T11:16:11.323Z,6.00
2018-12-12T11:17:03.997Z,5.40
2018-12-12T11:18:04.183Z,5.60
2018-12-12T11:19:04.364Z,6.40
2018-12-12T11:20:04.551Z,5.70
2018-12-12T11:21:04.735Z,6.00
2018-12-12T11:22:04.924Z,5.20
2018-12-12T11:23:05.108Z,5.70
2018-12-12T11:24:05.289Z,5.80
2018-12-12T11:25:05.469Z,6.10
2018-12-12T11:26:05.660Z,6.00
2018-12-12T11:27:05.838Z,6.30
2018-12-12T11:28:06.024Z,5.80
2018-12-12T11:29:06.205Z,6.50
2018-12-12T11:30:06.387Z,6.40
2018-12-12T11:31:06.569Z,6.40
2018-12-12T11:32:06.756Z,5.90
2018-12-12T11:33:06.946Z,5.40
2018-12-12T11:34:07.130Z,5.70
2018-12-12T11:35:07.309Z,6.50
2018-12-12T11:36:07.493Z,6.10
2018-12-12T11:37:07.679Z,5.70
2018-12-12T11:38:07.862Z,6.40
2018-12-12T11:39:08.045Z,6.20
2018-12-12T11:40:08.225Z,6.70
2018-12-12T11:41:08.416Z,6.20
2018-12-12T11:42:08.598Z,5.80
2018-12-12T11:43:08.784Z,6.10
2018-12-12T11:44:08.965Z,6.00
2018-12-12T11:45:09.149Z,5.90
2018-12-12T11:46:09.340Z,6.10
2018-12-12T11:47:09.508Z,6.50
2018-12-12T11:48:09.692Z,6.10
2018-12-12T11:49:09.877Z,5.90
2018-12-12T11:50:10.071Z,5.30
2018-12-12T11:51:10.254Z,6.50
2018-12-12T11:52:10.448Z,5.90
2018-12-12T11:53:10.631Z,6.10
2018-12-12T11:54:10.814Z,5.80
2018-12-12T11:55:10.996Z,6.40
2018-12-12T11:56:11.183Z,6.10
2018-12-12T11:57:11.373Z,6.20
2018-12-12T11:58:11.553Z,5.70
2018-12-12T11:59:11.742Z,6.20
2018-12-12T12:00:11.921Z,6.40
2018-12-12T12:01:12.102Z,5.60
2018-12-12T12:02:12.284Z,5.80
2018-12-12T12:03:12.520Z,5.80
2018-12-12T12:04:12.646Z,6.00
2018-12-12T12:05:12.829Z,5.80
2018-12-12T12:06:13.024Z,6.40
2018-12-12T12:07:13.209Z,5.60
2018-12-12T12:08:13.390Z,6.50
2018-12-12T12:09:13.572Z,6.60
2018-12-12T12:10:13.761Z,6.20
2018-12-12T12:11:13.938Z,5.90
2018-12-12T12:12:14.119Z,6.50
2018-12-12T12:13:14.303Z,6.40
2018-12-12T12:14:14.499Z,6.90
2018-12-12T12:15:14.682Z,6.50
2018-12-12T12:16:14.864Z,6.50
2018-12-12T12:17:15.052Z,6.40
2018-12-12T12:18:15.228Z,7.00
2018-12-12T12:19:15.421Z,6.60
2018-12-12T12:20:15.604Z,6.60
2018-12-12T12:21:15.785Z,6.60
2018-12-12T12:22:15.971Z,6.50
2018-12-12T12:23:16.157Z,6.10
2018-12-12T12:24:16.353Z,6.20
2018-12-12T12:25:16.548Z,6.50
2018-12-12T12:26:16.729Z,6.10
2018-12-12T12:27:16.906Z,5.60
2018-12-12T12:28:17.092Z,6.30
2018-12-12T12:29:17.275Z,6.00
2018-12-12T12:30:17.460Z,6.40
2018-12-12T12:31:17.646Z,5.60
2018-12-12T12:32:17.834Z,5.60
2018-12-12T12:33:18.016Z,5.40
2018-12-12T12:34:18.193Z,6.20
2018-12-12T12:35:18.381Z,5.60
2018-12-12T12:36:18.568Z,6.20
2018-12-12T12:37:18.758Z,5.50
2018-12-12T12:38:18.946Z,4.90
2018-12-12T12:39:19.136Z,5.10
2018-12-12T12:40:19.321Z,5.10
2018-12-12T12:41:19.501Z,5.70
2018-12-12T12:42:19.681Z,5.30
2018-12-12T12:43:19.867Z,4.70
2018-12-12T12:44:20.054Z,4.90
2018-12-12T12:45:20.236Z,4.80
2018-12-12T12:46:20.424Z,5.10
2018-12-12T12:47:20.608Z,5.10
2018-12-12T12:48:20.806Z,4.90
2018-12-12T12:49:20.988Z,4.90
2018-12-12T12:50:21.207Z,4.90
2018-12-12T12:51:21.370Z,5.10
2018-12-12T12:52:21.550Z,5.00
2018-12-12T12:53:21.733Z,5.40
2018-12-12T12:54:21.915Z,4.90
2018-12-12T12:55:22.108Z,5.00
2018-12-12T12:56:22.297Z,5.00
2018-12-12T12:57:22.481Z,4.90
2018-12-12T12:58:22.662Z,5.50
2018-12-12T12:59:22.844Z,5.10
2018-12-12T13:00:23.027Z,5.30
2018-12-12T13:01:23.206Z,4.60
2018-12-12T13:02:23.387Z,4.70
2018-12-12T13:03:23.572Z,4.90
2018-12-12T13:04:23.755Z,4.70
2018-12-12T13:05:23.937Z,4.90
2018-12-12T13:06:24.124Z,4.80
2018-12-12T13:07:24.322Z,4.80
2018-12-12T13:08:24.478Z,5.00
2018-12-12T13:09:24.669Z,5.20
2018-12-12T13:10:24.872Z,5.20
2018-12-12T13:11:25.046Z,4.60
2018-12-12T13:12:25.236Z,4.60
2018-12-12T13:13:25.553Z,4.80
2018-12-12T13:14:25.606Z,5.00
2018-12-12T13:15:25.798Z,4.90
2018-12-12T13:16:25.982Z,5.20
2018-12-12T13:17:26.169Z,4.90
2018-12-12T13:18:26.351Z,5.10
2018-12-12T13:19:26.533Z,5.00
2018-12-12T13:20:26.722Z,4.80